createdAt,value
2023-03-30T00:03:32.519Z,63.16
2023-03-30T00:07:26.985Z,63.11
2023-03-30T00:09:28.382Z,62.42
2023-03-30T00:13:30.519Z,62.99
2023-03-30T00:17:33.793Z,65.34
2023-03-30T00:20:19.130Z,65.38
2023-03-30T00:24:22.041Z,63.37
2023-03-30T00:28:25.228Z,63.49
2023-03-30T00:30:27.008Z,63.1
2023-03-30T00:34:29.930Z,62.57
2023-03-30T00:36:31.280Z,62.33
2023-03-30T00:40:34.577Z,62.88
2023-03-30T00:44:37.821Z,62.45
2023-03-30T00:46:39.570Z,63.44
2023-03-30T00:50:42.029Z,64.25
2023-03-30T00:54:44.801Z,61.4
2023-03-30T00:56:45.760Z,60.25
2023-03-30T01:00:48.037Z,61.22
2023-03-30T01:02:49.772Z,61.35
2023-03-30T01:06:51.897Z,61.88
2023-03-30T01:10:54.821Z,62.4
2023-03-30T01:12:56.108Z,62.16
2023-03-30T01:16:58.434Z,61.36
2023-03-30T01:18:59.864Z,61.51
2023-03-30T01:23:03.358Z,62.36
2023-03-30T01:27:05.508Z,62.88
2023-03-30T01:29:07.119Z,63.61
2023-03-30T01:33:09.700Z,63.56
2023-03-30T01:37:12.470Z,63.55
2023-03-30T01:39:14.139Z,63.58
2023-03-30T01:43:16.094Z,64.44
2023-03-30T01:45:17.719Z,66.12
2023-03-30T01:47:19.387Z,66.09
2023-03-30T01:49:21.057Z,65.79
2023-03-30T01:53:23.767Z,66.71
2023-03-30T01:55:25.185Z,67
2023-03-30T01:59:28.258Z,67.55
2023-03-30T02:01:30.087Z,67.39
2023-03-30T02:05:32.864Z,68.44
2023-03-30T02:09:36.399Z,68.77
2023-03-30T02:11:38.102Z,68.47
2023-03-30T02:15:41.443Z,68.79
2023-03-30T02:19:44.108Z,68.71
2023-03-30T02:21:45.344Z,68.77
2023-03-30T02:25:48.228Z,68.69
2023-03-30T02:27:49.768Z,68.59
2023-03-30T02:29:51.075Z,68.7
2023-03-30T02:31:52.998Z,68.94
2023-03-30T02:35:55.652Z,69.55
2023-03-30T02:37:56.979Z,69.12
2023-03-30T02:39:58.818Z,68.93
2023-03-30T02:41:59.876Z,69.04
2023-03-30T02:44:01.230Z,69.26
2023-03-30T02:48:04.503Z,70.46
2023-03-30T02:50:06.285Z,71.34
2023-03-30T02:52:07.693Z,71.65
2023-03-30T02:54:09.162Z,72.06
2023-03-30T02:58:11.356Z,71.49
2023-03-30T03:00:12.973Z,71.59
2023-03-30T03:04:16.132Z,71.92
2023-03-30T03:08:18.689Z,72.29
2023-03-30T03:10:19.695Z,73.04
2023-03-30T03:14:22.812Z,73.16
2023-03-30T03:18:25.457Z,73.6
2023-03-30T03:20:26.700Z,72.43
2023-03-30T03:24:29.389Z,72.5
2023-03-30T03:26:30.667Z,72.61
2023-03-30T03:30:33.188Z,72.86
2023-03-30T03:34:35.200Z,74.06
2023-03-30T03:36:36.338Z,75.03
2023-03-30T03:40:38.909Z,76.88
2023-03-30T03:42:40.556Z,77.24
2023-03-30T03:46:43.212Z,77.78
2023-03-30T03:50:45.593Z,77.86
2023-03-30T03:52:46.764Z,78.28
2023-03-30T03:56:49.130Z,77.34
2023-03-30T04:00:51.887Z,77.88
2023-03-30T04:02:52.804Z,78.68
2023-03-30T04:06:55.346Z,79.3
2023-03-30T04:08:56.593Z,79.96
2023-03-30T04:10:58.352Z,80.9
2023-03-30T04:12:59.824Z,81.29
2023-03-30T04:17:02.601Z,80.63
2023-03-30T04:19:03.784Z,81.02
2023-03-30T04:21:04.994Z,81.25
2023-03-30T04:23:06.536Z,81.3
2023-03-30T04:25:07.651Z,81.46
2023-03-30T04:29:10.662Z,84.74
2023-03-30T04:31:11.787Z,86.98
2023-03-30T04:33:13.645Z,86.79
2023-03-30T04:35:15.164Z,86.71
2023-03-30T04:39:17.986Z,82.74
2023-03-30T04:41:19.477Z,82.68
2023-03-30T04:45:22.675Z,82.24
2023-03-30T04:49:25.056Z,82.47
2023-03-30T04:51:26.547Z,82.02
2023-03-30T04:55:29.611Z,81.81
2023-03-30T04:59:32.313Z,82.43
2023-03-30T05:01:33.276Z,81.77
2023-03-30T05:05:36.117Z,81.88
2023-03-30T05:07:37.035Z,81.97
2023-03-30T05:11:40.241Z,82.27
2023-03-30T05:15:43.005Z,82.11
2023-03-30T05:17:44.148Z,82.16
2023-03-30T05:21:47.603Z,82.52
2023-03-30T05:23:49.450Z,83.23
2023-03-30T05:27:52.182Z,82.01
2023-03-30T05:31:55.192Z,82
2023-03-30T05:33:56.965Z,81.6
2023-03-30T05:37:59.764Z,82.81
2023-03-30T05:42:01.949Z,84.17
2023-03-30T05:44:03.788Z,84.5
2023-03-30T05:48:06.721Z,85.72
2023-03-30T05:50:08.048Z,85.75
2023-03-30T05:54:10.065Z,85.16
2023-03-30T05:58:13.370Z,84.19
2023-03-30T06:00:15.013Z,84.58
2023-03-30T06:04:17.393Z,85.94
2023-03-30T06:06:18.586Z,87.18
2023-03-30T06:10:21.703Z,87.81
2023-03-30T06:14:24.139Z,87.38
2023-03-30T06:16:26.014Z,87.26
2023-03-30T06:20:28.813Z,87.83
2023-03-30T06:24:31.203Z,88.19
2023-03-30T06:26:32.277Z,88.79
2023-03-30T06:30:35.818Z,89.48
2023-03-30T06:32:37.581Z,90.13
2023-03-30T06:36:44.168Z,90.78
2023-03-30T06:40:43.316Z,91.84
2023-03-30T06:42:44.910Z,92.23
2023-03-30T06:46:47.726Z,93.02
2023-03-30T06:48:49.315Z,93.36
2023-03-30T06:52:52.631Z,93.87
2023-03-30T06:56:55.233Z,94.38
2023-03-30T06:58:56.700Z,94.57
2023-03-30T07:02:59.467Z,94.85
2023-03-30T07:07:46.199Z,95.06
2023-03-30T07:09:47.646Z,95.02
2023-03-30T07:11:48.698Z,95.07
2023-03-30T07:13:50.412Z,95.19
2023-03-30T07:17:53.592Z,95.12
2023-03-30T07:19:54.823Z,95.17
2023-03-30T07:21:56.356Z,94.83
2023-03-30T07:23:58.206Z,94.61
2023-03-30T07:25:59.817Z,94.42
2023-03-30T07:30:10.535Z,94.66
2023-03-30T07:32:04.506Z,94.81
2023-03-30T07:34:05.892Z,94.96
2023-03-30T07:36:07.588Z,95.03
2023-03-30T07:40:09.699Z,95.18
2023-03-30T07:42:11.320Z,95.27
2023-03-30T07:46:14.513Z,94.98
2023-03-30T07:50:18.197Z,95
2023-03-30T07:52:20.079Z,95.09
2023-03-30T07:56:23.201Z,95.19
2023-03-30T08:00:26.041Z,95.26
2023-03-30T08:02:27.832Z,95.33
2023-03-30T08:06:30.585Z,95.02
2023-03-30T08:08:32.386Z,94.88
2023-03-30T08:12:34.918Z,94.76
2023-03-30T08:16:37.340Z,94.74
2023-03-30T08:18:38.809Z,94.64
2023-03-30T08:22:41.582Z,94.5
2023-03-30T08:24:43.179Z,94.5
2023-03-30T08:26:44.825Z,94.57
2023-03-30T08:28:46.560Z,94.61
2023-03-30T08:32:49.222Z,94.71
2023-03-30T08:34:50.273Z,94.72
2023-03-30T08:36:52.109Z,94.72
2023-03-30T08:38:53.656Z,94.65
2023-03-30T08:40:55.114Z,94.44
2023-03-30T08:44:58.512Z,94.15
2023-03-30T08:46:59.823Z,93.69
2023-03-30T08:49:01.264Z,93.85
2023-03-30T08:51:02.956Z,93.78
2023-03-30T08:55:04.850Z,93.33
2023-03-30T08:57:06.031Z,92.84
2023-03-30T09:01:08.931Z,92.15
2023-03-30T09:05:11.829Z,92.55
2023-03-30T09:07:13.112Z,92.79
2023-03-30T09:11:16.224Z,92.32
2023-03-30T09:15:29.051Z,91.63
2023-03-30T09:17:20.130Z,91.61
2023-03-30T09:21:23.665Z,91.39
2023-03-30T09:23:25.491Z,90.73
2023-03-30T09:27:28.492Z,90.71
2023-03-30T09:31:31.497Z,90.31
2023-03-30T09:33:32.969Z,90.51
2023-03-30T09:37:36.591Z,90.26
2023-03-30T09:39:38.143Z,89.34
2023-03-30T09:43:42.103Z,88.62
2023-03-30T09:47:45.339Z,88.68
2023-03-30T09:49:47.113Z,88.61
2023-03-30T09:53:50.268Z,88.61
2023-03-30T09:57:53.541Z,88.76
2023-03-30T09:59:54.651Z,87.04
2023-03-30T10:03:57.908Z,85.52
2023-03-30T10:05:58.538Z,86.7
2023-03-30T10:10:01.235Z,85.25
2023-03-30T10:14:03.514Z,85.98
2023-03-30T10:16:05.208Z,85.49
2023-03-30T10:20:14.044Z,85.13
2023-03-30T10:22:08.976Z,85.93
2023-03-30T10:26:11.864Z,85.85
2023-03-30T10:30:14.026Z,85.26
2023-03-30T10:32:15.766Z,85.66
2023-03-30T10:36:18.875Z,85.04
2023-03-30T10:40:21.606Z,85.08
2023-03-30T10:42:22.798Z,85.74
2023-03-30T10:46:25.728Z,86.36
2023-03-30T10:48:26.459Z,85.89
2023-03-30T10:52:29.617Z,85.22
2023-03-30T10:56:31.685Z,84.97
2023-03-30T10:58:32.930Z,85.13
2023-03-30T11:02:35.045Z,84.45
2023-03-30T11:04:36.068Z,83.97
2023-03-30T11:08:39.245Z,83.96
2023-03-30T11:12:41.905Z,83.02
2023-03-30T11:14:42.974Z,83.41
2023-03-30T11:18:45.352Z,82.5
2023-03-30T11:20:46.326Z,82.27
2023-03-30T11:24:49.289Z,82.31
2023-03-30T11:28:52.614Z,81.89
2023-03-30T11:30:53.666Z,82.24
2023-03-30T11:34:56.196Z,80.28
2023-03-30T11:38:59.020Z,78.86
2023-03-30T11:40:59.965Z,78.75
2023-03-30T11:45:02.038Z,77.9
2023-03-30T11:47:03.694Z,78.78
2023-03-30T11:51:07.188Z,79.14
2023-03-30T11:55:09.485Z,78.32
2023-03-30T11:57:11.830Z,79.26
2023-03-30T12:01:14.816Z,79.35
2023-03-30T12:03:16.668Z,79.37
2023-03-30T12:07:19.781Z,79.47
2023-03-30T12:11:22.202Z,78.89
2023-03-30T12:13:23.489Z,79.17
2023-03-30T12:17:26.471Z,78.1
2023-03-30T12:21:29.218Z,77.56
2023-03-30T12:23:30.238Z,77.22
2023-03-30T12:27:32.994Z,76.26
2023-03-30T12:30:00.568Z,75.44
2023-03-30T12:33:36.353Z,75.16
2023-03-30T12:37:39.289Z,75.52
2023-03-30T12:39:40.496Z,73.94
2023-03-30T12:43:44.297Z,72.3
2023-03-30T12:45:45.500Z,72.17
2023-03-30T12:49:47.522Z,70.19
2023-03-30T12:53:50.416Z,68.58
2023-03-30T12:55:51.497Z,68.75
2023-03-30T12:59:53.316Z,68.74
2023-03-30T13:03:55.973Z,66.82
2023-03-30T13:05:57.268Z,66.62
2023-03-30T13:10:00.934Z,67.79
2023-03-30T13:12:02.197Z,67.89
2023-03-30T13:14:03.892Z,68.88
2023-03-30T13:16:06.079Z,69.48
2023-03-30T13:20:15.517Z,70.51
2023-03-30T13:22:09.642Z,70.44
2023-03-30T13:24:10.653Z,74.13
2023-03-30T13:26:15.157Z,72.58
2023-03-30T13:28:20.548Z,72.86
2023-03-30T13:32:15.518Z,72.19
2023-03-30T13:34:16.493Z,72.56
2023-03-30T13:36:18.037Z,71.85
2023-03-30T13:38:19.450Z,71.86
2023-03-30T13:42:22.283Z,71.06
2023-03-30T13:44:23.436Z,70.28
2023-03-30T13:48:34.992Z,71.41
2023-03-30T13:53:21.370Z,70.28
2023-03-30T13:57:24.978Z,65.43
2023-03-30T13:59:26.789Z,65.17
2023-03-30T14:03:29.915Z,66.53
2023-03-30T14:05:30.882Z,67.04
2023-03-30T14:09:33.577Z,68.27
2023-03-30T14:13:35.856Z,69.29
2023-03-30T14:15:37.129Z,73.64
2023-03-30T14:19:40.766Z,78.69
2023-03-30T14:23:43.735Z,75.48
2023-03-30T14:25:44.835Z,75.68
2023-03-30T14:29:46.808Z,73.65
2023-03-30T14:31:56.951Z,73.38
2023-03-30T14:35:50.846Z,72.81
2023-03-30T14:39:54.006Z,72.06
2023-03-30T14:41:54.937Z,71.4
2023-03-30T14:45:57.318Z,71.08
2023-03-30T14:47:58.968Z,69.79
2023-03-30T14:52:02.521Z,69.99
2023-03-30T14:56:05.002Z,70.07
2023-03-30T14:58:06.467Z,68.32
2023-03-30T15:02:09.290Z,68.53
2023-03-30T15:04:10.281Z,68.01
2023-03-30T15:08:12.728Z,67.67
2023-03-30T15:12:16.081Z,67.29
2023-03-30T15:14:17.582Z,67.09
2023-03-30T15:18:19.799Z,67.07
2023-03-30T15:22:22.349Z,67.67
2023-03-30T15:24:23.243Z,67.67
2023-03-30T15:28:25.775Z,67.3
2023-03-30T15:30:27.220Z,66.23
2023-03-30T15:34:29.851Z,66.27
2023-03-30T15:38:32.513Z,67.51
2023-03-30T15:40:33.702Z,67.98
2023-03-30T15:44:36.752Z,67.23
2023-03-30T15:46:38.332Z,68.31
2023-03-30T15:50:40.876Z,69.7
2023-03-30T15:54:43.297Z,70.35
2023-03-30T15:56:44.301Z,69.94
2023-03-30T16:00:47.204Z,70.08
2023-03-30T16:04:50.080Z,73.91
2023-03-30T16:06:51.265Z,70.69
2023-03-30T16:10:55.131Z,72.02
2023-03-30T16:12:57.756Z,73.18
2023-03-30T16:17:01.210Z,72.08
2023-03-30T16:21:03.788Z,72.34
2023-03-30T16:23:04.966Z,72.24
2023-03-30T16:27:08.021Z,71.21
2023-03-30T16:29:09.588Z,71.43
2023-03-30T16:33:12.635Z,71.65
2023-03-30T16:37:14.989Z,69.59
2023-03-30T16:39:15.776Z,69.2
2023-03-30T16:43:19.131Z,68.85
2023-03-30T16:47:21.365Z,69.36
2023-03-30T16:49:23.032Z,66.51
2023-03-30T16:53:25.183Z,67.5
2023-03-30T16:55:26.344Z,66.39
2023-03-30T16:57:28.088Z,65.87
2023-03-30T16:59:29.543Z,66.86
2023-03-30T17:03:32.967Z,66.41
2023-03-30T17:05:34.283Z,66.04
2023-03-30T17:07:35.746Z,65.48
2023-03-30T17:09:37.085Z,64.72
2023-03-30T17:11:38.008Z,64.12
2023-03-30T17:15:41.181Z,64.1
2023-03-30T17:19:43.271Z,61.15
2023-03-30T17:21:44.581Z,61.53
2023-03-30T17:25:48.750Z,61.56
2023-03-30T17:27:48.831Z,60.61
2023-03-30T17:31:51.693Z,60.09
2023-03-30T17:35:54.504Z,60.5
2023-03-30T17:37:56.006Z,60.76
2023-03-30T17:41:58.991Z,61.22
2023-03-30T17:46:01.766Z,62.23
2023-03-30T17:48:02.811Z,62.72
2023-03-30T17:52:05.552Z,63.48
2023-03-30T17:54:07.413Z,64.07
2023-03-30T17:58:10.819Z,64.42
2023-03-30T18:02:13.343Z,65.34
2023-03-30T18:04:14.725Z,65.22
2023-03-30T18:08:17.259Z,65.23
2023-03-30T18:10:18.320Z,65.79
2023-03-30T18:14:20.982Z,65.1
2023-03-30T18:18:24.300Z,65.7
2023-03-30T18:20:25.722Z,65.67
2023-03-30T18:24:28.271Z,65.54
2023-03-30T18:28:31.289Z,65.58
2023-03-30T18:30:32.694Z,65.41
2023-03-30T18:34:35.277Z,65.32
2023-03-30T18:36:36.213Z,65.52
2023-03-30T18:40:39.123Z,66.35
2023-03-30T18:44:42.430Z,65.99
2023-03-30T18:46:43.942Z,66.1
2023-03-30T18:50:47.462Z,66.84
2023-03-30T18:52:49.051Z,67.47
2023-03-30T18:56:52.012Z,69.09
2023-03-30T19:00:54.604Z,73.48
2023-03-30T19:02:56.127Z,75.74
2023-03-30T19:06:58.812Z,77.92
2023-03-30T19:11:01.285Z,77.82
2023-03-30T19:13:02.722Z,78.26
2023-03-30T19:17:05.769Z,78.22
2023-03-30T19:19:06.572Z,78.73
2023-03-30T19:23:09.855Z,79.35
2023-03-30T19:27:13.245Z,78.39
2023-03-30T19:29:15.119Z,79.69
2023-03-30T19:33:17.775Z,79.89
2023-03-30T19:35:19.729Z,79.68
2023-03-30T19:39:22.623Z,78.39
2023-03-30T19:43:25.419Z,79.44
2023-03-30T19:45:26.643Z,79.77
2023-03-30T19:49:29.454Z,79.37
2023-03-30T19:53:32.473Z,79.44
2023-03-30T19:55:34.177Z,79.38
2023-03-30T19:59:36.560Z,80.05
2023-03-30T20:01:38.362Z,80.22
2023-03-30T20:05:41.250Z,83.89
2023-03-30T20:09:44.539Z,85.93
2023-03-30T20:11:46.013Z,87.07
2023-03-30T20:15:49.375Z,87.63
2023-03-30T20:17:50.598Z,87.75
2023-03-30T20:21:53.981Z,88.88
2023-03-30T20:25:57.440Z,89.25
2023-03-30T20:27:58.887Z,88.27
2023-03-30T20:32:02.357Z,88.14
2023-03-30T20:36:48.797Z,87.47
2023-03-30T20:38:50.330Z,87.38
2023-03-30T20:42:52.784Z,87.71
2023-03-30T20:46:55.378Z,88.18
2023-03-30T20:48:57.072Z,88.85
2023-03-30T20:50:58.950Z,89.43
2023-03-30T20:52:59.875Z,89.84
2023-03-30T20:55:01.517Z,90.38
2023-03-30T20:59:04.471Z,90.76
2023-03-30T21:03:06.883Z,91.02
2023-03-30T21:05:08.211Z,90.76
2023-03-30T21:09:11.604Z,89.7
2023-03-30T21:11:13.079Z,89.22
2023-03-30T21:15:16.557Z,88.21
2023-03-30T21:19:19.391Z,88.7
2023-03-30T21:21:21.198Z,87.8
2023-03-30T21:25:24.827Z,89.18
2023-03-30T21:29:28.316Z,88.22
2023-03-30T21:31:29.680Z,88.37
2023-03-30T21:35:32.586Z,87.02
2023-03-30T21:37:33.995Z,85.76
2023-03-30T21:41:37.010Z,86.24
2023-03-30T21:45:39.509Z,86.23
2023-03-30T21:47:40.704Z,86.12
2023-03-30T21:51:43.138Z,86.68
2023-03-30T21:53:44.696Z,85.71
2023-03-30T21:57:48.074Z,86.07
2023-03-30T22:01:51.088Z,85.89
2023-03-30T22:03:52.890Z,85.6
2023-03-30T22:07:55.555Z,85.28
2023-03-30T22:11:58.264Z,83.09
2023-03-30T22:14:00.015Z,83.73
2023-03-30T22:18:02.959Z,84.39
2023-03-30T22:20:04.712Z,86.06
2023-03-30T22:24:07.469Z,86.31
2023-03-30T22:28:10.213Z,87.22
2023-03-30T22:30:11.878Z,86.97
2023-03-30T22:34:15.216Z,86.41
2023-03-30T22:36:17.117Z,88.28
2023-03-30T22:40:19.528Z,90.21
2023-03-30T22:44:22.107Z,91.49
2023-03-30T22:46:23.350Z,91.83
2023-03-30T22:50:25.664Z,90.88
2023-03-30T22:54:28.226Z,91.48
2023-03-30T22:56:29.783Z,91.62
2023-03-30T23:00:33.261Z,92.57
2023-03-30T23:02:34.454Z,92.85
2023-03-30T23:06:37.002Z,93.14
2023-03-30T23:10:40.539Z,93.17
2023-03-30T23:12:41.864Z,92.89
2023-03-30T23:16:45.379Z,92.84
2023-03-30T23:18:47.237Z,92.87
2023-03-30T23:22:50.029Z,91.74
2023-03-30T23:26:53.140Z,91.88
2023-03-30T23:28:54.881Z,92.18
2023-03-30T23:32:57.743Z,92.8
2023-03-30T23:37:01.366Z,92.86
2023-03-30T23:39:03.071Z,92.95
2023-03-30T23:43:05.917Z,92.69
2023-03-30T23:45:07.749Z,92.71
2023-03-30T23:49:10.254Z,92.53
2023-03-30T23:53:12.608Z,92.25
2023-03-30T23:55:14.218Z,92.14
2023-03-30T23:59:16.738Z,91.26
